Time;durP1;ratioP1;P1;durP2;ratioP2;P2;SDS_P1;SDS_P2;PMS_P1;PMS_P2;Temp;Humidity;BMP_temperature;BMP_pressure;BME280_temperature;BME280_humidity;BME280_pressure;Samples;Min_cycle;Max_cycle;Signal;HPM_P1;HPM_P2
2022/07/17 00:01:52;;;;;;;;;;;10.20;92.10;;;;;;5047473;28;19920;-73
2022/07/17 00:04:17;;;;;;;;;;;10.20;92.00;;;;;;5050163;28;19920;-73
2022/07/17 00:06:42;;;;;;;;;;;10.10;91.90;;;;;;5048004;28;20418;-73
2022/07/17 00:09:08;;;;;;;;;;;10.10;91.90;;;;;;5046557;28;19920;-73
2022/07/17 00:11:33;;;;;;;;;;;10.10;92.30;;;;;;5047375;28;19984;-73
2022/07/17 00:13:59;;;;;;;;;;;10.10;92.60;;;;;;5045237;28;19917;-73
2022/07/17 00:16:24;;;;;;;;;;;10.00;92.70;;;;;;5053490;28;20178;-73
2022/07/17 00:18:50;;;;;;;;;;;10.10;92.80;;;;;;5043727;28;19905;-73
2022/07/17 00:21:15;;;;;;;;;;;10.00;92.80;;;;;;5049978;28;19908;-73
2022/07/17 00:23:41;;;;;;;;;;;10.00;93.00;;;;;;5047468;28;19990;-73
2022/07/17 00:26:06;;;;;;;;;;;10.00;93.10;;;;;;5044845;28;19920;-73
2022/07/17 00:28:32;;;;;;;;;;;9.90;93.00;;;;;;5045563;28;19921;-73
2022/07/17 00:30:57;;;;;;;;;;;9.90;93.20;;;;;;5047586;28;20015;-73
2022/07/17 00:33:23;;;;;;;;;;;9.90;93.40;;;;;;5050508;28;19916;-73
2022/07/17 00:35:48;;;;;;;;;;;9.80;93.40;;;;;;5045387;28;19916;-73
2022/07/17 00:38:14;;;;;;;;;;;9.80;93.30;;;;;;5041864;28;20003;-73
2022/07/17 00:40:40;;;;;;;;;;;9.80;93.20;;;;;;5044768;28;20352;-73
2022/07/17 00:43:05;;;;;;;;;;;9.70;93.30;;;;;;5048119;28;19919;-73
2022/07/17 00:45:31;;;;;;;;;;;9.60;93.00;;;;;;5046895;28;20012;-73
2022/07/17 00:48:00;;;;;;;;;;;9.60;93.10;;;;;;5042824;28;20342;-73
2022/07/17 00:50:28;;;;;;;;;;;9.60;93.50;;;;;;5039877;28;19908;-73
2022/07/17 00:52:53;;;;;;;;;;;9.60;93.60;;;;;;5046260;28;19905;-73
2022/07/17 00:55:19;;;;;;;;;;;9.60;93.80;;;;;;5046362;28;19913;-73
2022/07/17 00:57:45;;;;;;;;;;;9.60;93.80;;;;;;5044517;28;19924;-73
2022/07/17 01:00:11;;;;;;;;;;;9.60;93.60;;;;;;5049574;28;19909;-73
2022/07/17 01:02:37;;;;;;;;;;;9.70;93.30;;;;;;5047916;28;20178;-73
2022/07/17 01:05:03;;;;;;;;;;;9.80;93.50;;;;;;5048618;28;20384;-73
2022/07/17 01:07:29;;;;;;;;;;;9.90;93.70;;;;;;5046804;28;19962;-73
2022/07/17 01:09:55;;;;;;;;;;;10.00;93.80;;;;;;5049369;28;19931;-73
2022/07/17 01:12:20;;;;;;;;;;;10.00;93.80;;;;;;5043540;28;19909;-73
2022/07/17 01:14:46;;;;;;;;;;;10.10;93.80;;;;;;5045786;28;20308;-73
2022/07/17 01:17:12;;;;;;;;;;;10.10;93.80;;;;;;5046346;28;19967;-73
2022/07/17 01:19:37;;;;;;;;;;;10.10;93.70;;;;;;5043605;28;20367;-73
2022/07/17 01:22:03;;;;;;;;;;;10.20;93.60;;;;;;5046468;28;19916;-73
2022/07/17 01:24:28;;;;;;;;;;;10.20;93.60;;;;;;5052433;28;19946;-73
2022/07/17 01:26:54;;;;;;;;;;;10.20;93.60;;;;;;5046987;28;19917;-73
2022/07/17 01:29:19;;;;;;;;;;;10.30;93.60;;;;;;5045644;28;19988;-73
2022/07/17 01:31:45;;;;;;;;;;;10.30;93.50;;;;;;5044434;28;20372;-73
2022/07/17 01:34:12;;;;;;;;;;;10.40;93.30;;;;;;5048481;28;19984;-73
2022/07/17 01:36:38;;;;;;;;;;;10.40;93.20;;;;;;5047280;28;20424;-73
2022/07/17 01:39:04;;;;;;;;;;;10.50;93.30;;;;;;5047857;28;20050;-73
2022/07/17 01:41:30;;;;;;;;;;;10.50;93.20;;;;;;5053919;28;19948;-73
2022/07/17 01:43:55;;;;;;;;;;;10.50;93.10;;;;;;5042044;28;19948;-73
2022/07/17 01:46:21;;;;;;;;;;;10.60;93.00;;;;;;5046910;28;19913;-73
2022/07/17 01:48:46;;;;;;;;;;;10.60;92.80;;;;;;5041576;28;19928;-73
2022/07/17 01:51:12;;;;;;;;;;;10.60;92.90;;;;;;5041366;28;19916;-73
2022/07/17 01:53:37;;;;;;;;;;;10.60;92.70;;;;;;5045550;28;20504;-73
2022/07/17 01:56:03;;;;;;;;;;;10.60;92.60;;;;;;5043767;28;19921;-73
2022/07/17 01:58:28;;;;;;;;;;;10.60;92.60;;;;;;5043425;28;19932;-73
2022/07/17 02:00:53;;;;;;;;;;;10.50;92.50;;;;;;5044709;28;19917;-73
2022/07/17 02:03:19;;;;;;;;;;;10.50;92.60;;;;;;5047636;28;19919;-73
2022/07/17 02:05:45;;;;;;;;;;;10.40;92.60;;;;;;5044173;28;19912;-73
2022/07/17 02:08:10;;;;;;;;;;;10.30;92.70;;;;;;5047355;28;20321;-73
2022/07/17 02:10:35;;;;;;;;;;;10.20;92.70;;;;;;5045336;28;19928;-73
2022/07/17 02:13:01;;;;;;;;;;;10.10;92.80;;;;;;5049184;28;19914;-73
2022/07/17 02:15:26;;;;;;;;;;;10.10;93.10;;;;;;5045648;28;19908;-73
2022/07/17 02:17:52;;;;;;;;;;;10.00;93.30;;;;;;5034068;28;19916;-73
2022/07/17 02:20:18;;;;;;;;;;;9.90;93.30;;;;;;5043066;28;20563;-73
2022/07/17 02:22:45;;;;;;;;;;;9.80;93.20;;;;;;5044329;28;19937;-73
2022/07/17 02:25:10;;;;;;;;;;;9.80;93.40;;;;;;5041884;28;19931;-73
2022/07/17 02:27:36;;;;;;;;;;;9.70;93.70;;;;;;5043926;28;20047;-73
2022/07/17 02:30:03;;;;;;;;;;;9.70;93.90;;;;;;5044827;28;19966;-73
2022/07/17 02:32:28;;;;;;;;;;;9.60;93.80;;;;;;5051930;28;20292;-73
2022/07/17 02:34:53;;;;;;;;;;;9.50;93.70;;;;;;5044521;28;19920;-73
2022/07/17 02:37:19;;;;;;;;;;;9.50;93.80;;;;;;5047454;28;19974;-73
2022/07/17 02:39:53;;;;;;;;;;;9.40;94.00;;;;;;5045686;28;19933;-73
2022/07/17 02:42:22;;;;;;;;;;;9.40;94.20;;;;;;5042847;28;20011;-73
2022/07/17 02:44:48;;;;;;;;;;;9.40;94.40;;;;;;5041753;28;19943;-73
2022/07/17 02:47:20;;;;;;;;;;;9.30;94.60;;;;;;5045725;28;20000;-73
2022/07/17 02:49:45;;;;;;;;;;;9.30;94.50;;;;;;5051775;28;20228;-73
2022/07/17 02:52:11;;;;;;;;;;;9.30;94.60;;;;;;5045690;28;19909;-73
2022/07/17 02:54:36;;;;;;;;;;;9.20;94.50;;;;;;5040789;28;19918;-73
2022/07/17 02:57:02;;;;;;;;;;;9.10;94.60;;;;;;5042810;28;20325;-73
2022/07/17 02:59:27;;;;;;;;;;;9.20;94.70;;;;;;5038599;28;20586;-73
2022/07/17 03:01:52;;;;;;;;;;;9.20;94.70;;;;;;5046111;28;19946;-73
2022/07/17 03:04:18;;;;;;;;;;;9.10;94.90;;;;;;5043487;28;19999;-73
2022/07/17 03:06:43;;;;;;;;;;;9.10;94.80;;;;;;5043209;28;20279;-73
2022/07/17 03:09:09;;;;;;;;;;;9.10;95.00;;;;;;5039167;28;20380;-73
2022/07/17 03:11:34;;;;;;;;;;;9.10;95.10;;;;;;5036851;28;20352;-73
2022/07/17 03:13:59;;;;;;;;;;;9.10;95.10;;;;;;5042610;28;20307;-73
2022/07/17 03:16:25;;;;;;;;;;;9.10;95.00;;;;;;5046070;28;20301;-73
2022/07/17 03:18:50;;;;;;;;;;;9.10;94.90;;;;;;5042391;28;20533;-73
2022/07/17 03:21:16;;;;;;;;;;;9.00;94.90;;;;;;5043589;28;19908;-73
2022/07/17 03:23:41;;;;;;;;;;;9.00;94.90;;;;;;5048107;28;20356;-73
2022/07/17 03:26:06;;;;;;;;;;;9.00;95.10;;;;;;5045276;28;19956;-73
2022/07/17 03:28:32;;;;;;;;;;;9.00;94.90;;;;;;5044144;28;19922;-73
2022/07/17 03:30:57;;;;;;;;;;;9.00;94.80;;;;;;5043814;28;19921;-73
2022/07/17 03:33:23;;;;;;;;;;;9.00;94.70;;;;;;5046515;28;20360;-73
2022/07/17 03:35:48;;;;;;;;;;;9.00;94.70;;;;;;5037974;28;19999;-73
2022/07/17 03:38:14;;;;;;;;;;;9.10;94.80;;;;;;5038399;28;19931;-73
2022/07/17 03:40:39;;;;;;;;;;;9.10;94.60;;;;;;5040965;28;20302;-73
2022/07/17 03:43:05;;;;;;;;;;;9.20;94.70;;;;;;5045596;28;20015;-73
2022/07/17 03:45:30;;;;;;;;;;;9.40;95.00;;;;;;5042158;28;19999;-73
2022/07/17 03:47:55;;;;;;;;;;;9.50;95.00;;;;;;5042495;28;19913;-73
2022/07/17 03:50:21;;;;;;;;;;;9.50;95.00;;;;;;5042797;28;19958;-73
2022/07/17 03:52:46;;;;;;;;;;;9.50;95.00;;;;;;5043370;28;20005;-73
2022/07/17 03:55:12;;;;;;;;;;;9.60;95.10;;;;;;5042043;28;19912;-73
2022/07/17 03:57:37;;;;;;;;;;;9.70;95.00;;;;;;5043941;28;19916;-74
2022/07/17 04:00:03;;;;;;;;;;;9.70;95.10;;;;;;5041928;28;19909;-74
2022/07/17 04:02:28;;;;;;;;;;;9.80;95.00;;;;;;5044835;28;19913;-74
2022/07/17 04:04:54;;;;;;;;;;;9.80;95.00;;;;;;5043397;28;20379;-74
2022/07/17 04:07:28;;;;;;;;;;;9.80;95.00;;;;;;5044017;28;19917;-74
2022/07/17 04:09:55;;;;;;;;;;;9.80;94.90;;;;;;5043744;28;20267;-74
2022/07/17 04:12:20;;;;;;;;;;;9.80;94.90;;;;;;5047010;28;19912;-74
2022/07/17 04:14:46;;;;;;;;;;;9.80;94.80;;;;;;5040003;28;20213;-74
2022/07/17 04:17:11;;;;;;;;;;;9.90;94.80;;;;;;5042258;28;20319;-73
2022/07/17 04:19:36;;;;;;;;;;;9.90;94.80;;;;;;5040541;28;20233;-73
2022/07/17 04:22:02;;;;;;;;;;;9.90;94.80;;;;;;5049114;28;20309;-73
2022/07/17 04:24:27;;;;;;;;;;;10.00;94.80;;;;;;5047909;28;20352;-73
2022/07/17 04:26:53;;;;;;;;;;;10.10;94.70;;;;;;5042656;28;20265;-73
2022/07/17 04:29:18;;;;;;;;;;;10.10;94.50;;;;;;5045081;28;19983;-73
2022/07/17 04:31:43;;;;;;;;;;;10.20;94.40;;;;;;5052814;28;19916;-73
2022/07/17 04:34:09;;;;;;;;;;;10.30;94.30;;;;;;5048701;28;19989;-73
2022/07/17 04:36:35;;;;;;;;;;;10.40;94.20;;;;;;5048302;28;20383;-73
2022/07/17 04:39:00;;;;;;;;;;;10.40;93.90;;;;;;5043273;28;20442;-73
2022/07/17 04:41:26;;;;;;;;;;;10.50;93.80;;;;;;5049524;28;20014;-73
2022/07/17 04:43:51;;;;;;;;;;;10.50;93.70;;;;;;5041024;28;19916;-73
2022/07/17 04:46:16;;;;;;;;;;;10.60;93.50;;;;;;5049123;28;19970;-73
2022/07/17 04:48:42;;;;;;;;;;;10.60;93.50;;;;;;5041626;28;20007;-73
2022/07/17 04:51:07;;;;;;;;;;;10.70;93.20;;;;;;5051434;28;20272;-73
2022/07/17 04:53:33;;;;;;;;;;;10.80;93.30;;;;;;5040595;28;20218;-73
2022/07/17 04:55:59;;;;;;;;;;;10.80;93.20;;;;;;5043922;28;20374;-73
2022/07/17 04:58:24;;;;;;;;;;;10.90;93.00;;;;;;5038483;28;19988;-73
2022/07/17 05:00:50;;;;;;;;;;;10.90;92.90;;;;;;5047431;28;20294;-73
2022/07/17 05:03:15;;;;;;;;;;;11.00;92.80;;;;;;5046683;28;20001;-73
2022/07/17 05:05:40;;;;;;;;;;;11.00;92.60;;;;;;5046793;28;19909;-73
2022/07/17 05:08:06;;;;;;;;;;;11.10;92.70;;;;;;5047012;28;19959;-73
2022/07/17 05:10:31;;;;;;;;;;;11.10;92.50;;;;;;5047458;28;20382;-73
2022/07/17 05:12:57;;;;;;;;;;;11.10;92.70;;;;;;5048336;28;20336;-73
2022/07/17 05:15:23;;;;;;;;;;;11.30;92.40;;;;;;5043900;28;20114;-73
2022/07/17 05:17:48;;;;;;;;;;;11.30;92.20;;;;;;5047439;28;20312;-73
2022/07/17 05:20:13;;;;;;;;;;;11.30;91.90;;;;;;5045710;28;19952;-73
2022/07/17 05:22:39;;;;;;;;;;;11.40;92.10;;;;;;5050589;28;19904;-73
2022/07/17 05:25:05;;;;;;;;;;;11.40;92.20;;;;;;5041925;28;19924;-73
2022/07/17 05:27:30;;;;;;;;;;;11.50;91.90;;;;;;5046766;28;19916;-71
2022/07/17 05:29:56;;;;;;;;;;;11.60;91.80;;;;;;5041043;28;19913;-71
2022/07/17 05:32:21;;;;;;;;;;;11.60;91.60;;;;;;5048444;28;19909;-71
2022/07/17 05:34:46;;;;;;;;;;;11.70;91.80;;;;;;5045923;28;19993;-71
2022/07/17 05:37:12;;;;;;;;;;;11.80;91.70;;;;;;5047153;28;20217;-71
2022/07/17 05:39:39;;;;;;;;;;;11.90;91.30;;;;;;5047012;28;20398;-71
2022/07/17 05:42:05;;;;;;;;;;;12.10;91.50;;;;;;5044552;28;20389;-71
2022/07/17 05:44:30;;;;;;;;;;;12.10;91.40;;;;;;5044146;28;19909;-71
2022/07/17 05:46:56;;;;;;;;;;;12.20;91.20;;;;;;5045210;28;19932;-71
2022/07/17 05:49:21;;;;;;;;;;;12.20;91.00;;;;;;5046478;28;19932;-71
2022/07/17 05:51:47;;;;;;;;;;;12.30;90.90;;;;;;5042095;28;19912;-71
2022/07/17 05:54:12;;;;;;;;;;;12.40;90.40;;;;;;5043213;28;20572;-71
2022/07/17 05:56:38;;;;;;;;;;;12.50;90.40;;;;;;5042334;28;20003;-71
2022/07/17 05:59:03;;;;;;;;;;;12.60;89.60;;;;;;5042887;28;20003;-71
2022/07/17 06:01:28;;;;;;;;;;;12.70;89.70;;;;;;5046829;28;19916;-71
2022/07/17 06:03:54;;;;;;;;;;;12.70;89.40;;;;;;5043444;28;19913;-71
2022/07/17 06:06:21;;;;;;;;;;;12.90;89.50;;;;;;5043677;28;21125;-71
2022/07/17 06:08:46;;;;;;;;;;;13.00;89.30;;;;;;5042462;28;19913;-71
2022/07/17 06:11:12;;;;;;;;;;;13.00;88.90;;;;;;5043872;28;19966;-71
2022/07/17 06:13:37;;;;;;;;;;;13.00;88.90;;;;;;5044502;28;19935;-71
2022/07/17 06:16:03;;;;;;;;;;;13.00;89.10;;;;;;5044199;28;19916;-71
2022/07/17 06:18:28;;;;;;;;;;;13.00;89.20;;;;;;5047229;28;19912;-71
2022/07/17 06:20:53;;;;;;;;;;;13.00;89.50;;;;;;5046986;28;19950;-71
2022/07/17 06:23:19;;;;;;;;;;;13.10;89.60;;;;;;5039283;28;20002;-71
2022/07/17 06:25:44;;;;;;;;;;;13.10;89.70;;;;;;5039791;28;19978;-71
2022/07/17 06:28:10;;;;;;;;;;;13.20;89.60;;;;;;5043431;28;20012;-71
2022/07/17 06:30:35;;;;;;;;;;;13.40;89.60;;;;;;5051422;28;20045;-70
2022/07/17 06:33:01;;;;;;;;;;;13.30;89.30;;;;;;5044308;28;19912;-71
2022/07/17 06:35:26;;;;;;;;;;;13.40;88.90;;;;;;5045443;28;20367;-71
2022/07/17 06:37:51;;;;;;;;;;;13.40;89.10;;;;;;5043702;28;20376;-71
2022/07/17 06:40:17;;;;;;;;;;;13.50;89.00;;;;;;5042602;28;19913;-71
2022/07/17 06:42:42;;;;;;;;;;;13.60;88.80;;;;;;5037685;28;20264;-71
2022/07/17 06:45:08;;;;;;;;;;;13.60;88.60;;;;;;5044299;28;20359;-71
2022/07/17 06:47:33;;;;;;;;;;;13.70;88.40;;;;;;5045869;28;20011;-71
2022/07/17 06:49:59;;;;;;;;;;;13.60;87.90;;;;;;5041542;28;20398;-71
2022/07/17 06:52:24;;;;;;;;;;;13.80;87.90;;;;;;5044775;28;20352;-71
2022/07/17 06:54:50;;;;;;;;;;;13.80;87.30;;;;;;5043623;28;19908;-71
2022/07/17 06:57:15;;;;;;;;;;;14.00;87.70;;;;;;5041595;28;19947;-71
2022/07/17 06:59:41;;;;;;;;;;;14.00;87.00;;;;;;5030989;28;20248;-71
2022/07/17 07:02:06;;;;;;;;;;;14.10;86.70;;;;;;5043672;28;19931;-71
2022/07/17 07:04:32;;;;;;;;;;;14.30;86.60;;;;;;5047634;28;19913;-71
2022/07/17 07:06:57;;;;;;;;;;;14.60;86.10;;;;;;5042889;28;19921;-71
2022/07/17 07:09:23;;;;;;;;;;;15.00;85.90;;;;;;5041521;28;19923;-71
2022/07/17 07:11:48;;;;;;;;;;;15.10;83.80;;;;;;5044441;28;19920;-71
2022/07/17 07:14:13;;;;;;;;;;;15.30;83.50;;;;;;5043290;28;19916;-71
2022/07/17 07:16:39;;;;;;;;;;;15.40;83.20;;;;;;5043410;28;20007;-71
2022/07/17 07:19:04;;;;;;;;;;;15.50;82.80;;;;;;5044101;28;20329;-71
2022/07/17 07:21:30;;;;;;;;;;;15.80;82.40;;;;;;5046940;28;19916;-71
2022/07/17 07:23:55;;;;;;;;;;;16.00;81.80;;;;;;5031033;28;19985;-71
2022/07/17 07:26:21;;;;;;;;;;;16.00;80.30;;;;;;5041302;28;19909;-71
2022/07/17 07:28:47;;;;;;;;;;;16.00;79.00;;;;;;5042266;28;19927;-71
2022/07/17 07:31:12;;;;;;;;;;;16.00;79.40;;;;;;5043737;28;20966;-71
2022/07/17 07:33:38;;;;;;;;;;;16.00;78.70;;;;;;5047007;28;19985;-71
2022/07/17 07:36:04;;;;;;;;;;;16.30;79.30;;;;;;5044928;28;20375;-71
2022/07/17 07:38:29;;;;;;;;;;;16.10;78.60;;;;;;5044208;28;20385;-71
2022/07/17 07:40:55;;;;;;;;;;;16.30;78.00;;;;;;5041108;28;20264;-71
2022/07/17 07:43:21;;;;;;;;;;;16.60;78.50;;;;;;5042705;28;19908;-71
2022/07/17 07:45:46;;;;;;;;;;;16.50;76.60;;;;;;5044634;28;19979;-71
2022/07/17 07:48:12;;;;;;;;;;;16.50;75.60;;;;;;5033903;28;19989;-71
2022/07/17 07:50:37;;;;;;;;;;;16.50;75.10;;;;;;5039601;28;19947;-71
2022/07/17 07:53:02;;;;;;;;;;;16.60;76.20;;;;;;5042290;28;19951;-71
2022/07/17 07:55:28;;;;;;;;;;;16.70;75.40;;;;;;5038625;28;19986;-71
2022/07/17 07:58:10;;;;;;;;;;;17.00;75.20;;;;;;5044409;28;20301;-71
2022/07/17 08:00:36;;;;;;;;;;;17.20;73.80;;;;;;5038848;28;20265;-71
2022/07/17 08:03:02;;;;;;;;;;;17.30;73.10;;;;;;5046317;28;19927;-71
2022/07/17 08:05:28;;;;;;;;;;;17.50;73.40;;;;;;5044379;28;20397;-71
2022/07/17 08:07:53;;;;;;;;;;;17.80;72.30;;;;;;5045892;28;19921;-71
2022/07/17 08:10:19;;;;;;;;;;;17.60;71.50;;;;;;5045314;28;20003;-71
2022/07/17 08:12:45;;;;;;;;;;;17.90;70.30;;;;;;5046893;28;19916;-71
2022/07/17 08:15:10;;;;;;;;;;;18.00;71.80;;;;;;5033702;28;19939;-71
2022/07/17 08:17:35;;;;;;;;;;;18.50;68.40;;;;;;5043028;28;19931;-71
2022/07/17 08:20:01;;;;;;;;;;;18.30;69.30;;;;;;5044447;28;19952;-71
2022/07/17 08:22:27;;;;;;;;;;;18.60;69.20;;;;;;5049468;28;19909;-71
2022/07/17 08:24:52;;;;;;;;;;;18.20;68.80;;;;;;5048009;28;19909;-71
2022/07/17 08:27:17;;;;;;;;;;;18.20;69.20;;;;;;5038137;28;19916;-71
2022/07/17 08:29:43;;;;;;;;;;;18.00;70.30;;;;;;5042438;28;19912;-72
2022/07/17 08:32:08;;;;;;;;;;;18.10;70.30;;;;;;5043794;28;19919;-71
2022/07/17 08:34:34;;;;;;;;;;;17.70;70.80;;;;;;5043634;28;20003;-71
2022/07/17 08:36:59;;;;;;;;;;;17.60;70.80;;;;;;5043948;28;19915;-71
2022/07/17 08:39:24;;;;;;;;;;;17.70;71.30;;;;;;5042421;28;19966;-71
2022/07/17 08:41:51;;;;;;;;;;;17.90;70.20;;;;;;5037887;28;19916;-71
2022/07/17 08:44:17;;;;;;;;;;;18.20;68.10;;;;;;5038966;28;19920;-71
2022/07/17 08:46:43;;;;;;;;;;;18.60;66.50;;;;;;5040696;28;20288;-72
2022/07/17 08:49:08;;;;;;;;;;;18.80;65.80;;;;;;5047046;28;19978;-71
2022/07/17 08:51:34;;;;;;;;;;;18.80;65.50;;;;;;5040702;28;19920;-72
2022/07/17 08:53:59;;;;;;;;;;;18.40;66.10;;;;;;5041040;28;19909;-72
2022/07/17 08:56:26;;;;;;;;;;;18.80;67.00;;;;;;5045067;28;19908;-72
2022/07/17 08:58:51;;;;;;;;;;;19.20;65.00;;;;;;5041559;28;20004;-71
2022/07/17 09:01:17;;;;;;;;;;;19.50;63.40;;;;;;5039961;28;20015;-72
2022/07/17 09:04:12;;;;;;;;;;;19.40;65.40;;;;;;5052306;28;19988;-71
2022/07/17 09:06:38;;;;;;;;;;;18.50;65.60;;;;;;5033699;28;20416;-72
2022/07/17 09:09:04;;;;;;;;;;;18.70;66.00;;;;;;5042714;28;19975;-71
2022/07/17 09:11:40;;;;;;;;;;;18.90;64.60;;;;;;5037485;28;19909;-72
2022/07/17 09:14:05;;;;;;;;;;;19.40;62.40;;;;;;5040636;28;20459;-72
2022/07/17 09:16:34;;;;;;;;;;;19.70;61.30;;;;;;5044070;28;20003;-71
2022/07/17 09:18:59;;;;;;;;;;;19.60;62.50;;;;;;5045476;28;20019;-72
2022/07/17 09:21:26;;;;;;;;;;;19.30;62.40;;;;;;5045471;28;19996;-71
2022/07/17 09:23:59;;;;;;;;;;;19.10;61.60;;;;;;5043776;28;20006;-71
2022/07/17 09:26:25;;;;;;;;;;;19.10;61.60;;;;;;5044169;28;19987;-71
2022/07/17 09:28:51;;;;;;;;;;;19.40;61.50;;;;;;5041331;28;20015;-72
2022/07/17 09:31:27;;;;;;;;;;;20.10;60.80;;;;;;5044503;28;19912;-72
2022/07/17 09:33:52;;;;;;;;;;;19.80;59.90;;;;;;5044248;28;20690;-72
2022/07/17 09:36:19;;;;;;;;;;;20.00;60.50;;;;;;5044868;28;19928;-72
2022/07/17 09:38:45;;;;;;;;;;;19.70;61.80;;;;;;5047293;28;19970;-71
2022/07/17 09:41:15;;;;;;;;;;;19.40;62.50;;;;;;5041043;28;20000;-71
2022/07/17 09:43:48;;;;;;;;;;;19.40;62.10;;;;;;5039147;28;20007;-72
2022/07/17 09:46:15;;;;;;;;;;;19.90;59.70;;;;;;5041949;28;19958;-72
2022/07/17 09:48:42;;;;;;;;;;;20.50;60.20;;;;;;5041472;28;19913;-72
2022/07/17 09:51:08;;;;;;;;;;;20.60;58.00;;;;;;5042916;28;19916;-72
2022/07/17 09:53:35;;;;;;;;;;;21.10;57.90;;;;;;5042782;28;19964;-72
2022/07/17 09:56:02;;;;;;;;;;;21.00;57.30;;;;;;5043978;28;19904;-72
2022/07/17 09:58:30;;;;;;;;;;;20.50;58.60;;;;;;5041410;28;20024;-72
2022/07/17 10:00:55;;;;;;;;;;;20.10;59.10;;;;;;5045771;28;19916;-71
2022/07/17 10:03:21;;;;;;;;;;;20.50;59.20;;;;;;5047557;28;19917;-71
2022/07/17 10:05:46;;;;;;;;;;;20.80;58.30;;;;;;5048680;28;19916;-72
2022/07/17 10:08:12;;;;;;;;;;;21.00;56.30;;;;;;5048658;28;20274;-72
2022/07/17 10:10:38;;;;;;;;;;;21.10;55.70;;;;;;5045872;28;19992;-72
2022/07/17 10:13:04;;;;;;;;;;;21.20;55.70;;;;;;5043863;28;19912;-71
2022/07/17 10:15:29;;;;;;;;;;;20.90;57.20;;;;;;5045132;28;19973;-72
2022/07/17 10:18:05;;;;;;;;;;;21.50;55.80;;;;;;5041774;28;19962;-71
2022/07/17 10:20:30;;;;;;;;;;;21.40;56.90;;;;;;5046247;28;19959;-71
2022/07/17 10:22:56;;;;;;;;;;;21.60;55.00;;;;;;5045496;28;19913;-71
2022/07/17 10:25:22;;;;;;;;;;;21.60;54.70;;;;;;5043511;28;19925;-72
2022/07/17 10:27:54;;;;;;;;;;;21.80;54.70;;;;;;5046702;28;20241;-72
2022/07/17 10:30:22;;;;;;;;;;;21.60;54.30;;;;;;5040668;28;19916;-72
2022/07/17 10:32:51;;;;;;;;;;;21.70;54.70;;;;;;5041499;28;20125;-72
2022/07/17 10:35:17;;;;;;;;;;;21.70;55.80;;;;;;5039216;28;20439;-72
2022/07/17 10:37:42;;;;;;;;;;;21.90;54.20;;;;;;5044782;28;20008;-72
2022/07/17 10:40:08;;;;;;;;;;;21.80;53.90;;;;;;5045907;28;19920;-72
2022/07/17 10:42:41;;;;;;;;;;;21.90;53.40;;;;;;5036664;28;19916;-72
2022/07/17 10:45:08;;;;;;;;;;;22.20;52.90;;;;;;5041939;28;20411;-72
2022/07/17 10:47:45;;;;;;;;;;;22.30;53.80;;;;;;5035814;28;20272;-72
2022/07/17 10:50:11;;;;;;;;;;;22.70;54.50;;;;;;5044046;28;19913;-72
2022/07/17 10:52:37;;;;;;;;;;;22.60;53.30;;;;;;5039672;28;20352;-70
2022/07/17 10:55:04;;;;;;;;;;;22.80;52.50;;;;;;5041016;28;20380;-70
2022/07/17 10:57:30;;;;;;;;;;;22.60;51.20;;;;;;5038827;28;19913;-70
2022/07/17 10:59:56;;;;;;;;;;;22.70;50.40;;;;;;5043388;28;19912;-70
2022/07/17 11:02:30;;;;;;;;;;;23.10;50.30;;;;;;5038898;28;20198;-70
2022/07/17 11:05:06;;;;;;;;;;;22.70;50.10;;;;;;5043047;28;20145;-70
2022/07/17 11:07:31;;;;;;;;;;;22.90;48.60;;;;;;5042133;28;19912;-70
2022/07/17 11:09:57;;;;;;;;;;;23.50;47.70;;;;;;5042347;28;20303;-69
2022/07/17 11:12:32;;;;;;;;;;;23.50;47.60;;;;;;5038163;28;19927;-70
2022/07/17 11:15:01;;;;;;;;;;;23.90;46.50;;;;;;5041125;28;19991;-70
2022/07/17 11:17:27;;;;;;;;;;;24.40;47.50;;;;;;5045334;28;19912;-70
2022/07/17 11:19:52;;;;;;;;;;;23.90;47.60;;;;;;5047599;28;19978;-69
2022/07/17 11:22:21;;;;;;;;;;;23.70;47.70;;;;;;5038577;28;19917;-70
2022/07/17 11:24:47;;;;;;;;;;;23.70;47.30;;;;;;5044281;28;19912;-69
2022/07/17 11:27:20;;;;;;;;;;;24.00;48.00;;;;;;5041592;28;19924;-69
2022/07/17 11:29:46;;;;;;;;;;;24.40;45.70;;;;;;5034957;28;19923;-70
2022/07/17 11:32:12;;;;;;;;;;;23.60;48.60;;;;;;5047314;28;19927;-70
2022/07/17 11:34:37;;;;;;;;;;;23.60;49.50;;;;;;5045512;28;20150;-69
2022/07/17 11:37:05;;;;;;;;;;;24.00;47.70;;;;;;5043706;28;19913;-69
2022/07/17 11:39:37;;;;;;;;;;;24.60;46.00;;;;;;5047520;28;19913;-70
2022/07/17 11:42:03;;;;;;;;;;;24.00;46.60;;;;;;5044229;28;19923;-69
2022/07/17 11:44:29;;;;;;;;;;;24.50;46.30;;;;;;5045665;28;19905;-70
2022/07/17 11:46:54;;;;;;;;;;;25.00;45.00;;;;;;5048013;28;19904;-70
2022/07/17 11:49:46;;;;;;;;;;;25.10;44.60;;;;;;5043579;28;19919;-70
2022/07/17 11:52:13;;;;;;;;;;;25.20;44.80;;;;;;5037697;28;20243;-70
2022/07/17 11:54:52;;;;;;;;;;;25.80;43.40;;;;;;5052033;28;19917;-70
2022/07/17 11:57:18;;;;;;;;;;;25.30;43.40;;;;;;5047502;28;19912;-69
2022/07/17 11:59:44;;;;;;;;;;;25.60;43.10;;;;;;5044752;28;19909;-69
2022/07/17 12:02:11;;;;;;;;;;;25.20;43.40;;;;;;5048409;28;19995;-70
2022/07/17 12:04:47;;;;;;;;;;;25.30;44.20;;;;;;5046271;28;19917;-70
2022/07/17 12:07:12;;;;;;;;;;;25.50;43.90;;;;;;5047011;28;19932;-70
2022/07/17 12:09:38;;;;;;;;;;;25.70;42.40;;;;;;5045770;28;19916;-70
2022/07/17 12:12:04;;;;;;;;;;;25.60;42.50;;;;;;5054490;28;19913;-70
2022/07/17 12:14:30;;;;;;;;;;;25.70;42.50;;;;;;5042846;28;19924;-70
2022/07/17 12:16:57;;;;;;;;;;;25.60;42.20;;;;;;5039973;28;19913;-69
2022/07/17 12:19:23;;;;;;;;;;;25.70;42.50;;;;;;5048566;28;20335;-69
2022/07/17 12:22:00;;;;;;;;;;;26.20;42.80;;;;;;5048959;28;19909;-69
2022/07/17 12:24:30;;;;;;;;;;;26.20;44.50;;;;;;5048255;28;19917;-69
2022/07/17 12:26:56;;;;;;;;;;;26.10;41.70;;;;;;5048282;28;19955;-70
2022/07/17 12:29:22;;;;;;;;;;;26.40;41.90;;;;;;5047388;28;19920;-70
2022/07/17 12:31:47;;;;;;;;;;;26.30;40.50;;;;;;5048520;28;19918;-71
2022/07/17 12:34:13;;;;;;;;;;;25.50;41.30;;;;;;5045783;28;19908;-70
2022/07/17 12:36:38;;;;;;;;;;;25.00;42.90;;;;;;5045575;28;19920;-70
2022/07/17 12:39:04;;;;;;;;;;;25.60;42.70;;;;;;5044924;28;19915;-70
2022/07/17 12:41:29;;;;;;;;;;;25.80;42.00;;;;;;5045486;28;19924;-70
2022/07/17 12:43:55;;;;;;;;;;;26.00;41.30;;;;;;5042302;28;19909;-70
2022/07/17 12:46:20;;;;;;;;;;;25.80;42.40;;;;;;5043827;28;19948;-69
2022/07/17 12:48:46;;;;;;;;;;;25.00;45.10;;;;;;5044727;28;20337;-70
2022/07/17 12:51:12;;;;;;;;;;;25.90;43.60;;;;;;5047088;28;20253;-70
2022/07/17 12:53:41;;;;;;;;;;;26.20;42.30;;;;;;5041576;28;20407;-70
2022/07/17 12:56:07;;;;;;;;;;;26.30;40.80;;;;;;5039544;28;19908;-70
2022/07/17 12:58:33;;;;;;;;;;;27.10;41.20;;;;;;5041986;28;19920;-70
2022/07/17 13:00:59;;;;;;;;;;;26.70;40.80;;;;;;5046204;28;19991;-70
2022/07/17 13:03:25;;;;;;;;;;;26.90;41.20;;;;;;5032912;28;19909;-70
2022/07/17 13:05:50;;;;;;;;;;;26.70;40.50;;;;;;5047306;28;19916;-70
2022/07/17 13:08:16;;;;;;;;;;;27.00;41.60;;;;;;5040057;28;19970;-70
2022/07/17 13:10:41;;;;;;;;;;;25.50;43.00;;;;;;5036134;28;19959;-70
2022/07/17 13:13:06;;;;;;;;;;;25.40;44.70;;;;;;5041308;28;19955;-69
2022/07/17 13:15:32;;;;;;;;;;;26.00;46.60;;;;;;5037808;28;20126;-70
2022/07/17 13:17:57;;;;;;;;;;;26.70;41.50;;;;;;5043238;28;19916;-70
2022/07/17 13:20:23;;;;;;;;;;;26.80;41.70;;;;;;5039718;28;19921;-70
2022/07/17 13:22:48;;;;;;;;;;;27.10;41.90;;;;;;5046599;28;19920;-70
2022/07/17 13:25:14;;;;;;;;;;;26.00;42.10;;;;;;5047660;28;19912;-70
2022/07/17 13:27:39;;;;;;;;;;;26.60;41.20;;;;;;5050607;28;19949;-70
2022/07/17 13:30:05;;;;;;;;;;;26.10;41.50;;;;;;5048866;28;19913;-70
2022/07/17 13:32:31;;;;;;;;;;;27.00;41.70;;;;;;5048942;28;19909;-70
2022/07/17 13:34:56;;;;;;;;;;;27.20;38.70;;;;;;5050285;28;19920;-70
2022/07/17 13:37:22;;;;;;;;;;;27.10;40.40;;;;;;5049233;28;19909;-70
2022/07/17 13:39:47;;;;;;;;;;;27.00;40.30;;;;;;5049693;28;19920;-70
2022/07/17 13:42:13;;;;;;;;;;;26.50;42.10;;;;;;5048898;28;19909;-70
2022/07/17 13:44:38;;;;;;;;;;;27.00;41.80;;;;;;5040660;28;19905;-70
2022/07/17 13:47:04;;;;;;;;;;;27.20;40.10;;;;;;5046968;28;20429;-70
2022/07/17 13:49:29;;;;;;;;;;;27.10;39.60;;;;;;5050023;28;19909;-70
2022/07/17 13:51:55;;;;;;;;;;;26.80;41.00;;;;;;5050427;28;19972;-70
2022/07/17 13:54:20;;;;;;;;;;;27.80;38.80;;;;;;5048121;28;19991;-70
2022/07/17 13:56:46;;;;;;;;;;;27.90;40.00;;;;;;5047107;28;20270;-70
2022/07/17 13:59:11;;;;;;;;;;;27.60;38.70;;;;;;5048882;28;19912;-70
2022/07/17 14:01:36;;;;;;;;;;;28.00;37.70;;;;;;5050080;28;19909;-70
2022/07/17 14:04:02;;;;;;;;;;;28.20;38.90;;;;;;5045960;28;19954;-70
2022/07/17 14:06:27;;;;;;;;;;;27.70;38.40;;;;;;5050210;28;19912;-70
2022/07/17 14:08:53;;;;;;;;;;;27.40;39.00;;;;;;5049650;28;20007;-70
2022/07/17 14:11:18;;;;;;;;;;;27.90;38.00;;;;;;5050350;28;19913;-70
2022/07/17 14:13:44;;;;;;;;;;;28.20;37.50;;;;;;5047615;28;19920;-70